Time;durP1;ratioP1;P1;durP2;ratioP2;P2;SDS_P1;SDS_P2;PMS_P1;PMS_P2;Temp;Humidity;BMP_temperature;BMP_pressure;BME280_temperature;BME280_humidity;BME280_pressure;Samples;Min_cycle;Max_cycle;Signal;HPM_P1;HPM_P2
2021/01/11 00:00:13;;;;;;;40.97;25.93;;;-1.40;99.90;;;;;;5091822;28;20755;-42
2021/01/11 00:02:40;;;;;;;37.47;26.23;;;-1.40;99.90;;;;;;5091748;28;20238;-44
2021/01/11 00:05:08;;;;;;;38.87;25.80;;;-1.30;99.90;;;;;;5091659;28;20238;-42
2021/01/11 00:07:35;;;;;;;63.83;34.67;;;-1.30;99.90;;;;;;5091877;28;20285;-42
2021/01/11 00:10:04;;;;;;;47.03;28.20;;;-1.20;99.90;;;;;;5091774;28;20321;-42
2021/01/11 00:12:36;;;;;;;50.00;28.00;;;-1.20;99.90;;;;;;5091843;28;20213;-44
2021/01/11 00:15:05;;;;;;;38.70;25.50;;;-1.20;99.90;;;;;;5095408;28;20245;-42
2021/01/11 00:17:33;;;;;;;39.60;24.93;;;-1.20;99.90;;;;;;5095387;28;20210;-42
2021/01/11 00:20:00;;;;;;;52.47;26.53;;;-1.10;99.90;;;;;;5095494;28;20209;-41
2021/01/11 00:22:27;;;;;;;57.60;23.53;;;-1.00;99.90;;;;;;5095114;28;20298;-42
2021/01/11 00:24:54;;;;;;;47.20;25.40;;;-1.00;99.90;;;;;;5095306;28;20263;-42
2021/01/11 00:27:21;;;;;;;53.90;25.83;;;-1.00;99.90;;;;;;5095420;28;20297;-43
2021/01/11 00:29:48;;;;;;;64.10;27.53;;;-1.00;99.90;;;;;;5095036;28;20240;-42
2021/01/11 00:32:15;;;;;;;90.63;28.03;;;-1.00;99.90;;;;;;5095002;28;20236;-43
2021/01/11 00:34:43;;;;;;;87.77;29.40;;;-1.00;99.90;;;;;;5095028;28;20712;-41
2021/01/11 00:37:10;;;;;;;123.53;38.40;;;-1.10;99.90;;;;;;5094937;28;20665;-42
2021/01/11 00:39:37;;;;;;;135.07;28.67;;;-1.20;99.90;;;;;;5094992;28;20297;-42
2021/01/11 00:42:05;;;;;;;111.03;29.17;;;-1.30;99.90;;;;;;5094948;28;20681;-42
2021/01/11 00:44:32;;;;;;;163.13;59.77;;;-1.40;99.90;;;;;;5094742;28;20293;-44
2021/01/11 00:47:01;;;;;;;91.03;25.83;;;-1.50;99.90;;;;;;5094820;28;20213;-42
2021/01/11 00:49:28;;;;;;;60.23;24.00;;;-1.50;99.90;;;;;;5094702;28;20665;-41
2021/01/11 00:51:56;;;;;;;70.47;24.93;;;-1.60;99.90;;;;;;5094779;28;20206;-42
2021/01/11 00:54:24;;;;;;;53.17;23.40;;;-1.50;99.90;;;;;;5094684;28;20293;-41
2021/01/11 00:56:51;;;;;;;96.13;26.20;;;-1.40;99.90;;;;;;5094771;28;20286;-42
2021/01/11 00:59:18;;;;;;;72.00;24.87;;;-1.50;99.90;;;;;;5094430;28;20210;-42
2021/01/11 01:01:49;;;;;;;75.50;24.53;;;-1.60;99.90;;;;;;5094783;28;20309;-42
2021/01/11 01:04:17;;;;;;;58.97;21.60;;;-1.60;99.90;;;;;;5094579;28;20211;-42
2021/01/11 01:06:44;;;;;;;99.50;28.00;;;-1.60;99.90;;;;;;5094383;28;20688;-42
2021/01/11 01:09:12;;;;;;;57.08;23.52;;;-1.60;99.90;;;;;;5094504;28;20238;-42
2021/01/11 01:11:40;;;;;;;44.93;20.77;;;-1.60;99.90;;;;;;5093970;28;20287;-42
2021/01/11 01:14:08;;;;;;;51.43;20.27;;;-1.60;99.90;;;;;;5094209;28;20253;-42
2021/01/11 01:16:36;;;;;;;126.57;48.50;;;-1.50;99.90;;;;;;5094395;28;20602;-41
2021/01/11 01:19:03;;;;;;;121.73;26.13;;;-1.50;99.90;;;;;;5094151;28;20241;-41
2021/01/11 01:21:30;;;;;;;98.67;24.43;;;-1.60;99.90;;;;;;5094091;28;20294;-41
2021/01/11 01:23:58;;;;;;;81.07;23.83;;;-1.70;99.90;;;;;;5093589;28;20211;-41
2021/01/11 01:26:26;;;;;;;94.37;24.50;;;-1.80;99.90;;;;;;5093701;28;20673;-41
2021/01/11 01:28:57;;;;;;;43.00;21.43;;;-2.00;99.90;;;;;;5094264;28;20218;-43
2021/01/11 01:31:24;;;;;;;89.10;23.77;;;-2.10;99.90;;;;;;5094065;28;20314;-43
2021/01/11 01:33:51;;;;;;;89.63;30.43;;;-2.00;99.90;;;;;;5093762;28;20645;-42
2021/01/11 01:36:19;;;;;;;69.47;26.87;;;-2.00;99.90;;;;;;5093851;28;20697;-41
2021/01/11 01:38:46;;;;;;;46.00;20.15;;;-2.10;99.90;;;;;;5093762;28;20249;-42
2021/01/11 01:41:13;;;;;;;47.42;21.48;;;-2.10;99.90;;;;;;5093877;28;20214;-42
2021/01/11 01:43:41;;;;;;;82.13;23.17;;;-2.10;99.90;;;;;;5093708;28;20732;-41
2021/01/11 01:46:14;;;;;;;42.57;21.17;;;-2.00;99.90;;;;;;5093760;28;20210;-41
2021/01/11 01:48:42;;;;;;;38.40;22.03;;;-1.90;99.90;;;;;;5093500;28;20302;-42
2021/01/11 01:51:10;;;;;;;44.60;25.10;;;-1.80;99.90;;;;;;5093457;28;20310;-41
2021/01/11 01:53:37;;;;;;;36.47;21.43;;;-1.80;99.90;;;;;;5093429;28;20302;-41
2021/01/11 01:56:05;;;;;;;34.43;22.67;;;-1.90;99.90;;;;;;5093547;28;20622;-43
2021/01/11 01:58:34;;;;;;;31.87;21.60;;;-1.80;99.90;;;;;;5093482;28;20211;-42
2021/01/11 02:01:02;;;;;;;34.37;22.40;;;-1.90;99.90;;;;;;5093534;28;20260;-42
2021/01/11 02:03:30;;;;;;;64.63;38.33;;;-1.80;99.90;;;;;;5093299;28;20211;-41
2021/01/11 02:05:57;;;;;;;43.17;25.17;;;-1.80;99.90;;;;;;5093209;28;20214;-43
2021/01/11 02:08:32;;;;;;;36.67;23.33;;;-1.80;99.90;;;;;;5093172;28;20293;-42
2021/01/11 02:11:13;;;;;;;42.63;26.97;;;-1.80;99.90;;;;;;5092901;28;20238;-41
2021/01/11 02:14:01;;;;;;;33.63;22.10;;;-1.80;99.90;;;;;;5093329;28;20214;-42
2021/01/11 02:16:39;;;;;;;33.63;22.87;;;-1.80;99.90;;;;;;5092921;28;20206;-44
2021/01/11 02:19:46;;;;;;;33.77;22.30;;;-1.80;99.90;;;;;;5093200;28;20575;-42
2021/01/11 02:22:20;;;;;;;39.53;23.33;;;-1.90;99.90;;;;;;5093113;28;20341;-41
2021/01/11 02:25:25;;;;;;;76.60;34.50;;;-2.00;99.90;;;;;;5092838;28;20310;-41
2021/01/11 02:27:55;;;;;;;46.25;26.17;;;-2.00;99.90;;;;;;5092842;28;20236;-41
2021/01/11 02:30:30;;;;;;;39.97;23.43;;;-2.20;99.90;;;;;;5092809;28;20322;-41
2021/01/11 02:33:02;;;;;;;37.10;21.53;;;-2.20;99.90;;;;;;5092918;28;20229;-44
2021/01/11 02:35:31;;;;;;;37.97;24.20;;;-2.20;99.90;;;;;;5092473;28;20206;-41
2021/01/11 02:37:59;;;;;;;35.47;23.30;;;-2.00;99.90;;;;;;5092391;28;20211;-41
2021/01/11 02:40:26;;;;;;;44.77;23.07;;;-2.00;99.90;;;;;;5092838;28;20305;-41
2021/01/11 02:42:53;;;;;;;37.53;22.93;;;-2.00;99.90;;;;;;5092720;28;20302;-42
2021/01/11 02:45:20;;;;;;;33.53;21.58;;;-2.00;99.90;;;;;;5092513;28;20308;-43
2021/01/11 02:48:10;;;;;;;38.23;22.07;;;-1.90;99.90;;;;;;5092412;28;20237;-42
2021/01/11 02:50:48;;;;;;;44.43;22.73;;;-1.90;99.90;;;;;;5092480;28;20258;-42
2021/01/11 02:53:29;;;;;;;49.33;25.33;;;-2.00;99.90;;;;;;5092521;28;20297;-41
2021/01/11 02:56:00;;;;;;;42.13;22.83;;;-1.90;99.90;;;;;;5092569;28;20225;-42
2021/01/11 02:58:44;;;;;;;49.00;22.73;;;-2.00;99.90;;;;;;5092494;28;20571;-41
2021/01/11 03:01:17;;;;;;;52.03;24.30;;;-2.10;99.90;;;;;;5092079;28;20480;-41
2021/01/11 03:03:48;;;;;;;33.90;21.87;;;-2.20;99.90;;;;;;5091908;28;20722;-43
2021/01/11 03:06:15;;;;;;;39.87;21.80;;;-2.30;99.90;;;;;;5091789;28;20212;-41
2021/01/11 03:08:43;;;;;;;33.40;20.92;;;-2.30;99.90;;;;;;5092124;28;20289;-42
2021/01/11 03:11:10;;;;;;;47.20;23.67;;;-2.30;99.90;;;;;;5091884;28;20234;-43
2021/01/11 03:13:37;;;;;;;37.00;21.83;;;-2.20;99.90;;;;;;5092236;28;20598;-42
2021/01/11 03:16:05;;;;;;;35.13;21.47;;;-2.20;99.90;;;;;;5092066;28;20246;-41
2021/01/11 03:18:32;;;;;;;34.80;22.00;;;-2.20;99.90;;;;;;5092220;28;20763;-41
2021/01/11 03:21:00;;;;;;;36.40;23.37;;;-2.20;99.90;;;;;;5091909;28;20310;-41
2021/01/11 03:23:27;;;;;;;31.77;21.67;;;-2.00;99.90;;;;;;5092163;28;20404;-41
2021/01/11 03:25:54;;;;;;;40.08;22.45;;;-1.90;99.90;;;;;;5092187;28;20619;-41
2021/01/11 03:28:21;;;;;;;36.77;23.30;;;-2.00;99.90;;;;;;5092038;28;20210;-42
2021/01/11 03:30:48;;;;;;;60.13;26.13;;;-2.10;99.90;;;;;;5091910;28;20321;-41
2021/01/11 03:33:15;;;;;;;57.07;23.73;;;-2.20;99.90;;;;;;5091916;28;20233;-41
2021/01/11 03:35:42;;;;;;;53.40;24.20;;;-2.20;99.90;;;;;;5091852;28;20223;-41
2021/01/11 03:38:10;;;;;;;63.70;23.43;;;-2.30;99.90;;;;;;5092189;28;20297;-41
2021/01/11 03:40:37;;;;;;;51.67;22.50;;;-2.30;99.90;;;;;;5092164;28;20285;-41
2021/01/11 03:43:04;;;;;;;54.00;22.97;;;-2.40;99.90;;;;;;5092019;28;20207;-41
2021/01/11 03:45:31;;;;;;;35.80;21.67;;;-2.40;99.90;;;;;;5092139;28;20249;-41
2021/01/11 03:47:58;;;;;;;38.30;21.80;;;-2.50;99.90;;;;;;5093976;28;20302;-41
2021/01/11 03:50:25;;;;;;;39.37;23.73;;;-2.40;99.90;;;;;;5096035;28;20317;-41
2021/01/11 03:52:52;;;;;;;42.00;22.70;;;-2.40;99.90;;;;;;5096236;28;20285;-41
2021/01/11 03:55:23;;;;;;;35.57;22.23;;;-2.30;99.90;;;;;;5095998;28;20214;-42
2021/01/11 03:57:50;;;;;;;42.27;22.43;;;-2.40;99.90;;;;;;5096001;28;20242;-41
2021/01/11 04:00:18;;;;;;;33.83;22.83;;;-2.40;99.90;;;;;;5095825;28;20297;-41
2021/01/11 04:02:45;;;;;;;52.00;23.23;;;-2.40;99.90;;;;;;5095640;28;20329;-41
2021/01/11 04:05:13;;;;;;;53.20;22.97;;;-2.40;99.90;;;;;;5095735;28;20665;-41
2021/01/11 04:07:40;;;;;;;36.20;22.50;;;-2.30;99.90;;;;;;5095764;28;20645;-41
2021/01/11 04:10:08;;;;;;;39.73;24.53;;;-2.20;99.90;;;;;;5095323;28;20254;-42
2021/01/11 04:12:36;;;;;;;40.33;23.17;;;-2.20;99.90;;;;;;5095580;28;20242;-41
2021/01/11 04:15:04;;;;;;;49.80;27.47;;;-2.20;99.90;;;;;;5095334;28;20221;-41
2021/01/11 04:17:31;;;;;;;43.13;24.47;;;-2.20;99.90;;;;;;5095749;28;20278;-42
2021/01/11 04:19:59;;;;;;;43.30;22.80;;;-2.20;99.90;;;;;;5095420;28;20249;-42
2021/01/11 04:22:26;;;;;;;46.40;24.10;;;-2.10;99.90;;;;;;5095772;28;20226;-44
2021/01/11 04:24:52;;;;;;;40.27;24.77;;;-2.00;99.90;;;;;;5095184;28;20238;-44
2021/01/11 04:27:20;;;;;;;45.33;23.33;;;-2.00;99.90;;;;;;5095305;28;20207;-41
2021/01/11 04:29:48;;;;;;;42.23;24.47;;;-2.00;99.90;;;;;;5095215;28;20661;-41
2021/01/11 04:32:15;;;;;;;42.00;23.50;;;-2.00;99.90;;;;;;5095074;28;20620;-43
2021/01/11 04:34:42;;;;;;;60.00;23.87;;;-1.90;99.90;;;;;;5095249;28;20241;-41
2021/01/11 04:37:10;;;;;;;40.50;25.33;;;-1.90;99.90;;;;;;5095226;28;20246;-41
2021/01/11 04:39:37;;;;;;;62.13;24.53;;;-2.00;99.90;;;;;;5095110;28;20294;-41
2021/01/11 04:42:10;;;;;;;50.33;25.03;;;-2.00;99.90;;;;;;5095016;28;20225;-41
2021/01/11 04:44:37;;;;;;;40.40;24.47;;;-2.10;99.90;;;;;;5094921;28;20246;-42
2021/01/11 04:47:05;;;;;;;41.87;24.97;;;-2.20;99.90;;;;;;5094789;28;20253;-43
2021/01/11 04:49:33;;;;;;;38.07;23.00;;;-2.10;99.90;;;;;;5094707;28;20213;-43
2021/01/11 04:52:02;;;;;;;38.00;24.10;;;-1.90;99.90;;;;;;5094714;28;20273;-42
2021/01/11 04:54:31;;;;;;;64.50;38.90;;;-2.00;99.90;;;;;;5094769;28;20210;-44
2021/01/11 04:57:01;;;;;;;41.70;23.57;;;-2.10;99.90;;;;;;5094621;28;20206;-42
2021/01/11 04:59:28;;;;;;;43.00;26.50;;;-2.20;99.90;;;;;;5093707;28;20246;-42
2021/01/11 05:01:56;;;;;;;42.13;24.57;;;-2.30;99.90;;;;;;5094617;28;20207;-42
2021/01/11 05:04:24;;;;;;;38.70;22.50;;;-2.30;99.90;;;;;;5094523;28;20583;-41
2021/01/11 05:07:01;;;;;;;39.67;23.90;;;-2.40;99.90;;;;;;5094437;28;20279;-41
2021/01/11 05:09:29;;;;;;;37.60;24.50;;;-2.30;99.90;;;;;;5094834;28;20213;-41
2021/01/11 05:11:58;;;;;;;42.93;25.47;;;-2.20;99.90;;;;;;5094085;28;20307;-43
2021/01/11 05:14:25;;;;;;;41.63;24.57;;;-2.10;99.90;;;;;;5094415;28;20283;-43
2021/01/11 05:17:05;;;;;;;41.00;22.83;;;-2.10;99.90;;;;;;5094159;28;20238;-42
2021/01/11 05:19:33;;;;;;;36.37;24.23;;;-2.00;99.90;;;;;;5093969;28;20367;-42
2021/01/11 05:22:00;;;;;;;38.47;22.47;;;-2.00;99.90;;;;;;5094160;28;20217;-44
2021/01/11 05:24:32;;;;;;;47.33;22.93;;;-1.90;99.90;;;;;;5094208;28;20217;-46
2021/01/11 05:27:01;;;;;;;40.27;22.83;;;-1.80;99.90;;;;;;5096391;28;20249;-41
2021/01/11 05:29:28;;;;;;;48.10;25.40;;;-1.80;99.90;;;;;;5093713;28;20559;-44
2021/01/11 05:31:57;;;;;;;40.67;25.67;;;-1.80;99.90;;;;;;5095030;28;20276;-41
2021/01/11 05:34:39;;;;;;;47.57;23.67;;;-1.90;99.90;;;;;;5093794;28;20264;-42
2021/01/11 05:37:07;;;;;;;37.33;22.33;;;-1.90;99.90;;;;;;5094021;28;20286;-42
2021/01/11 05:39:34;;;;;;;38.23;22.63;;;-2.00;99.90;;;;;;5093949;28;20297;-45
2021/01/11 05:42:01;;;;;;;44.07;23.33;;;-2.00;99.90;;;;;;5093642;28;20691;-42
2021/01/11 05:44:28;;;;;;;39.40;24.57;;;-1.90;99.90;;;;;;5093774;28;20253;-42
2021/01/11 05:47:01;;;;;;;39.87;24.37;;;-2.00;99.90;;;;;;5093525;28;20661;-42
2021/01/11 05:49:28;;;;;;;41.07;23.43;;;-2.10;99.90;;;;;;5093898;28;20210;-42
2021/01/11 05:51:55;;;;;;;35.30;22.67;;;-2.20;99.90;;;;;;5093643;28;20230;-42
2021/01/11 05:54:27;;;;;;;70.30;24.17;;;-2.20;99.90;;;;;;5093569;28;20237;-43
2021/01/11 05:56:56;;;;;;;50.27;24.40;;;-2.20;99.90;;;;;;5093299;28;20207;-43
2021/01/11 05:59:24;;;;;;;40.97;22.77;;;-2.30;99.90;;;;;;5093348;28;20210;-44
2021/01/11 06:01:59;;;;;;;54.77;25.07;;;-2.40;99.90;;;;;;5093431;28;20377;-42
2021/01/11 06:04:26;;;;;;;51.73;27.33;;;-2.40;99.90;;;;;;5093368;28;20217;-43
2021/01/11 06:06:54;;;;;;;65.20;24.17;;;-2.20;99.90;;;;;;5093396;28;20249;-42
2021/01/11 06:09:22;;;;;;;46.40;22.67;;;-2.20;99.90;;;;;;5093283;28;20618;-42
2021/01/11 06:11:51;;;;;;;47.80;24.27;;;-2.10;99.90;;;;;;5092990;28;20583;-43
2021/01/11 06:14:20;;;;;;;61.55;27.05;;;-2.00;99.90;;;;;;5093445;28;20232;-43
2021/01/11 06:16:46;;;;;;;67.15;24.17;;;-1.90;99.90;;;;;;5093164;28;20289;-42
2021/01/11 06:19:14;;;;;;;67.03;23.53;;;-1.90;99.90;;;;;;5093168;28;20351;-42
2021/01/11 06:21:49;;;;;;;52.83;23.47;;;-2.00;99.90;;;;;;5093053;28;20760;-42
2021/01/11 06:24:17;;;;;;;73.70;27.23;;;-2.00;99.90;;;;;;5093400;28;20309;-42
2021/01/11 06:26:45;;;;;;;49.60;23.90;;;-2.10;99.90;;;;;;5092869;28;20232;-42
2021/01/11 06:29:29;;;;;;;60.70;23.60;;;-2.10;99.90;;;;;;5092917;28;20211;-44
2021/01/11 06:31:57;;;;;;;74.87;24.60;;;-2.00;99.90;;;;;;5092716;28;20233;-43
2021/01/11 06:34:43;;;;;;;61.07;25.30;;;-1.90;99.90;;;;;;5092756;28;20218;-42
2021/01/11 06:37:17;;;;;;;38.13;22.00;;;-2.00;99.90;;;;;;5092863;28;20242;-42
2021/01/11 06:39:46;;;;;;;39.50;21.73;;;-2.00;99.90;;;;;;5092749;28;20238;-44
2021/01/11 06:42:13;;;;;;;46.67;22.37;;;-2.10;99.90;;;;;;5092631;28;20665;-44
2021/01/11 06:44:46;;;;;;;46.23;23.87;;;-2.10;99.90;;;;;;5092689;28;20210;-49
2021/01/11 06:47:26;;;;;;;34.43;22.03;;;-2.10;99.90;;;;;;5092407;28;20261;-45
2021/01/11 06:50:04;;;;;;;62.43;24.43;;;-2.00;99.90;;;;;;5092696;28;20358;-47
2021/01/11 06:52:35;;;;;;;42.93;22.87;;;-2.10;99.90;;;;;;5092578;28;20281;-44
2021/01/11 06:55:11;;;;;;;43.70;23.37;;;-2.10;99.90;;;;;;5092254;28;20207;-43
2021/01/11 06:57:39;;;;;;;34.63;21.70;;;-2.20;99.90;;;;;;5092154;28;20210;-43
2021/01/11 07:00:08;;;;;;;37.50;22.73;;;-2.30;99.90;;;;;;5092405;28;20361;-40
2021/01/11 07:02:41;;;;;;;32.53;22.03;;;-2.30;99.90;;;;;;5092083;28;20679;-41
2021/01/11 07:05:39;;;;;;;38.90;23.10;;;-2.30;99.90;;;;;;5092368;28;20256;-41
2021/01/11 07:08:08;;;;;;;40.13;23.23;;;-2.20;99.90;;;;;;5092150;28;20207;-42
2021/01/11 07:10:36;;;;;;;39.43;23.00;;;-2.20;99.90;;;;;;5092097;28;20277;-45
2021/01/11 07:13:25;;;;;;;37.10;23.77;;;-2.10;99.90;;;;;;5092458;28;20298;-42
2021/01/11 07:16:11;;;;;;;39.80;23.40;;;-1.90;99.90;;;;;;5092218;28;20298;-42
2021/01/11 07:18:55;;;;;;;44.40;23.40;;;-1.80;99.90;;;;;;5092518;28;20221;-41
2021/01/11 07:21:26;;;;;;;42.83;24.13;;;-1.70;99.90;;;;;;5092096;28;20640;-42
2021/01/11 07:23:56;;;;;;;40.37;23.13;;;-1.60;99.90;;;;;;5091753;28;20210;-42
2021/01/11 07:26:25;;;;;;;39.33;25.03;;;-1.50;99.90;;;;;;5092348;28;20210;-41
2021/01/11 07:29:01;;;;;;;39.23;23.20;;;-1.50;99.90;;;;;;5092064;28;20302;-44
2021/01/11 07:31:31;;;;;;;42.43;25.30;;;-1.50;99.90;;;;;;5092157;28;20236;-43
2021/01/11 07:34:06;;;;;;;47.93;24.33;;;-1.50;99.90;;;;;;5092252;28;20206;-42
2021/01/11 07:36:35;;;;;;;41.20;23.90;;;-1.50;99.90;;;;;;5091847;28;20285;-42
2021/01/11 07:39:16;;;;;;;45.57;26.23;;;-1.50;99.90;;;;;;5091835;28;20210;-43
2021/01/11 07:41:45;;;;;;;48.00;26.63;;;-1.50;99.90;;;;;;5091980;28;20199;-46
2021/01/11 07:44:23;;;;;;;41.47;24.07;;;-1.50;99.90;;;;;;5091971;28;20218;-42
2021/01/11 07:46:59;;;;;;;44.30;24.50;;;-1.70;99.90;;;;;;5091911;28;20206;-41
2021/01/11 07:49:29;;;;;;;42.47;23.13;;;-1.70;99.90;;;;;;5091839;28;20221;-49
2021/01/11 07:52:03;;;;;;;36.27;22.03;;;-1.60;99.90;;;;;;5091915;28;20248;-43
2021/01/11 07:54:30;;;;;;;43.10;24.53;;;-1.50;99.90;;;;;;5091724;28;20238;-43
2021/01/11 07:56:58;;;;;;;41.57;24.77;;;-1.40;99.90;;;;;;5091866;28;20206;-43
2021/01/11 07:59:26;;;;;;;40.23;23.13;;;-1.40;99.90;;;;;;5091684;28;20622;-43
2021/01/11 08:01:53;;;;;;;37.80;22.43;;;-1.40;99.90;;;;;;5091802;28;20552;-42
2021/01/11 08:04:21;;;;;;;40.60;23.13;;;-1.40;99.90;;;;;;5091589;28;20260;-42
2021/01/11 08:06:54;;;;;;;41.27;24.97;;;-1.40;99.90;;;;;;5091867;28;20660;-42
2021/01/11 08:09:23;;;;;;;37.00;23.23;;;-1.40;99.90;;;;;;5091827;28;20301;-42
2021/01/11 08:12:03;;;;;;;41.00;24.80;;;-1.50;99.90;;;;;;5091256;28;20234;-44
2021/01/11 08:14:30;;;;;;;39.13;22.83;;;-1.50;99.90;;;;;;5091604;28;20298;-44
2021/01/11 08:16:58;;;;;;;39.10;22.97;;;-1.60;99.90;;;;;;5091802;28;20210;-42
2021/01/11 08:19:26;;;;;;;47.17;24.60;;;-1.70;99.90;;;;;;5091504;28;20215;-43
2021/01/11 08:21:58;;;;;;;38.60;25.10;;;-1.70;99.90;;;;;;5091700;28;20555;-42
2021/01/11 08:24:25;;;;;;;42.07;25.00;;;-1.70;99.90;;;;;;5091564;28;20294;-45
2021/01/11 08:27:01;;;;;;;46.43;26.47;;;-1.60;99.90;;;;;;5091468;28;20218;-45
2021/01/11 08:29:31;;;;;;;39.43;25.23;;;-1.40;99.90;;;;;;5091505;28;20259;-42
2021/01/11 08:31:59;;;;;;;37.33;24.37;;;-1.20;99.90;;;;;;5091516;28;20309;-42
2021/01/11 08:34:27;;;;;;;37.70;24.10;;;-1.10;99.90;;;;;;5092278;28;20234;-42
2021/01/11 08:36:54;;;;;;;38.77;23.40;;;-1.10;99.90;;;;;;5095075;28;20206;-42
2021/01/11 08:39:24;;;;;;;40.17;23.47;;;-1.00;99.90;;;;;;5094902;28;20211;-42
2021/01/11 08:41:54;;;;;;;36.37;22.63;;;-0.90;99.90;;;;;;5094841;28;20285;-42
2021/01/11 08:44:39;;;;;;;37.67;22.13;;;-0.70;99.90;;;;;;5094835;28;20242;-41
2021/01/11 08:47:08;;;;;;;38.60;24.60;;;-0.70;99.90;;;;;;5094892;28;20234;-41
2021/01/11 08:49:55;;;;;;;49.00;26.20;;;-0.70;99.90;;;;;;5094784;28;20207;-41
2021/01/11 08:52:28;;;;;;;49.97;25.13;;;-0.70;99.90;;;;;;5094695;28;20315;-42
2021/01/11 08:54:56;;;;;;;46.17;25.57;;;-0.80;99.90;;;;;;5094819;28;20210;-44
2021/01/11 08:57:27;;;;;;;53.70;28.73;;;-0.70;99.90;;;;;;5094746;28;20230;-43
2021/01/11 08:59:54;;;;;;;42.20;25.17;;;-0.70;99.90;;;;;;5094773;28;20294;-44
2021/01/11 09:02:29;;;;;;;38.50;22.40;;;-0.70;99.90;;;;;;5094626;28;20288;-40
2021/01/11 09:05:11;;;;;;;41.27;25.70;;;-0.70;99.90;;;;;;5094795;28;20232;-39
2021/01/11 09:07:38;;;;;;;39.70;23.47;;;-0.70;99.90;;;;;;5094711;28;20252;-40
2021/01/11 09:10:19;;;;;;;35.63;22.80;;;-0.80;99.90;;;;;;5094463;28;20206;-40
2021/01/11 09:12:46;;;;;;;39.50;23.47;;;-0.70;99.90;;;;;;5094491;28;20420;-40
2021/01/11 09:15:14;;;;;;;40.37;23.30;;;-0.60;99.90;;;;;;5094282;28;20238;-40
2021/01/11 09:17:41;;;;;;;37.73;24.40;;;-0.60;99.90;;;;;;5094330;28;20242;-41
2021/01/11 09:20:09;;;;;;;37.63;23.77;;;-0.60;99.90;;;;;;5094181;28;20202;-44
2021/01/11 09:22:39;;;;;;;40.30;23.70;;;-0.60;99.90;;;;;;5094318;28;20241;-41
2021/01/11 09:25:10;;;;;;;42.83;23.03;;;-0.60;99.90;;;;;;5094335;28;20215;-41
2021/01/11 09:27:38;;;;;;;37.90;23.40;;;-0.60;99.90;;;;;;5094081;28;20295;-42
2021/01/11 09:30:07;;;;;;;42.23;24.63;;;-0.60;99.90;;;;;;5094359;28;20211;-42
2021/01/11 09:32:35;;;;;;;40.80;24.03;;;-0.50;99.90;;;;;;5094171;28;20309;-44
2021/01/11 09:35:02;;;;;;;39.20;23.30;;;-0.40;99.90;;;;;;5093878;28;20734;-42
2021/01/11 09:37:30;;;;;;;45.27;24.33;;;-0.30;99.90;;;;;;5093857;28;20214;-42
2021/01/11 09:39:57;;;;;;;41.67;24.57;;;-0.30;99.90;;;;;;5093764;28;20584;-48
2021/01/11 09:42:24;;;;;;;36.60;23.27;;;-0.20;99.90;;;;;;5094035;28;20241;-47
2021/01/11 09:44:51;;;;;;;40.47;24.57;;;-0.20;99.90;;;;;;5093575;28;20213;-48
2021/01/11 09:47:19;;;;;;;39.70;23.43;;;-0.20;99.90;;;;;;5093546;28;20249;-47
2021/01/11 09:49:46;;;;;;;35.00;23.37;;;-0.20;99.90;;;;;;5093612;28;20302;-45
2021/01/11 09:52:13;;;;;;;36.10;21.88;;;-0.20;99.90;;;;;;5093483;28;20649;-50
2021/01/11 09:54:41;;;;;;;41.00;24.40;;;-0.20;99.90;;;;;;5093472;28;20289;-43
2021/01/11 09:57:10;;;;;;;35.83;21.87;;;-0.20;99.90;;;;;;5093550;28;20297;-44
2021/01/11 09:59:37;;;;;;;40.93;24.37;;;-0.10;99.90;;;;;;5093279;28;20211;-49
2021/01/11 10:02:05;;;;;;;41.72;24.67;;;0.00;99.90;;;;;;5093375;28;20301;-48
2021/01/11 10:04:32;;;;;;;31.67;22.00;;;0.10;99.90;;;;;;5093520;28;20615;-50
2021/01/11 10:06:59;;;;;;;39.03;22.97;;;0.20;99.90;;;;;;5093376;28;20293;-47
2021/01/11 10:09:28;;;;;;;33.93;22.80;;;0.20;99.90;;;;;;5093131;28;20253;-47
2021/01/11 10:11:57;;;;;;;37.03;22.03;;;0.20;99.90;;;;;;5093031;28;20641;-44
2021/01/11 10:14:25;;;;;;;36.53;23.07;;;0.20;99.90;;;;;;5093338;28;20267;-46
2021/01/11 10:16:52;;;;;;;36.63;24.90;;;0.20;99.90;;;;;;5093090;28;20254;-45
2021/01/11 10:19:21;;;;;;;37.07;23.57;;;0.30;99.90;;;;;;5093119;28;20685;-48
2021/01/11 10:21:48;;;;;;;39.77;24.93;;;0.20;99.90;;;;;;5093153;28;20203;-46
2021/01/11 10:24:18;;;;;;;34.23;22.33;;;0.20;99.90;;;;;;5093336;28;20203;-46
2021/01/11 10:26:46;;;;;;;36.40;22.80;;;0.10;99.90;;;;;;5093224;28;20202;-44
2021/01/11 10:29:16;;;;;;;37.40;23.40;;;0.00;99.90;;;;;;5092989;28;20252;-45
2021/01/11 10:31:44;;;;;;;31.33;21.30;;;0.00;99.90;;;;;;5092692;28;20728;-44
2021/01/11 10:34:12;;;;;;;30.57;18.97;;;0.10;99.90;;;;;;5092842;28;20211;-45
2021/01/11 10:36:40;;;;;;;32.07;19.60;;;0.30;99.90;;;;;;5092732;28;20673;-46
2021/01/11 10:39:10;;;;;;;30.67;20.07;;;0.40;99.90;;;;;;5092980;28;20229;-47
2021/01/11 10:41:37;;;;;;;29.93;20.03;;;0.50;99.90;;;;;;5092910;28;20230;-44
2021/01/11 10:44:05;;;;;;;35.67;22.00;;;0.60;99.90;;;;;;5092717;28;20681;-47
2021/01/11 10:46:33;;;;;;;29.93;19.17;;;0.70;99.90;;;;;;5092794;28;20665;-44
2021/01/11 10:49:00;;;;;;;31.73;19.27;;;0.70;99.90;;;;;;5092655;28;20272;-43
2021/01/11 10:51:28;;;;;;;26.87;18.83;;;0.80;99.90;;;;;;5092674;28;20266;-42
2021/01/11 10:53:54;;;;;;;52.07;36.33;;;0.90;99.90;;;;;;5092570;28;20211;-43
2021/01/11 10:56:21;;;;;;;38.43;26.90;;;0.80;99.90;;;;;;5092190;28;20634;-42
2021/01/11 10:58:48;;;;;;;35.93;27.83;;;0.80;99.90;;;;;;5092164;28;20254;-43
2021/01/11 11:01:15;;;;;;;31.45;20.35;;;0.70;99.90;;;;;;5092434;28;20249;-43
2021/01/11 11:03:44;;;;;;;37.23;22.17;;;0.80;99.90;;;;;;5092674;28;20279;-43
2021/01/11 11:06:12;;;;;;;31.30;19.87;;;0.80;99.90;;;;;;5092366;28;20203;-42
2021/01/11 11:08:40;;;;;;;29.77;18.83;;;0.80;99.90;;;;;;5092341;28;20264;-42
2021/01/11 11:11:07;;;;;;;33.47;20.20;;;0.70;99.80;;;;;;5092017;28;20670;-42
2021/01/11 11:13:34;;;;;;;35.63;20.90;;;0.70;99.90;;;;;;5092285;28;20260;-42
2021/01/11 11:16:06;;;;;;;33.97;19.57;;;0.60;99.90;;;;;;5092218;28;20237;-42
2021/01/11 11:18:34;;;;;;;30.63;20.47;;;0.70;99.90;;;;;;5092279;28;20293;-42
2021/01/11 11:21:05;;;;;;;30.03;19.23;;;0.90;99.80;;;;;;5092492;28;20643;-42
2021/01/11 11:23:33;;;;;;;34.50;19.20;;;0.90;99.60;;;;;;5092135;28;20271;-42
2021/01/11 11:26:01;;;;;;;30.25;20.27;;;0.80;99.90;;;;;;5092055;28;20207;-41
2021/01/11 11:28:28;;;;;;;33.70;20.70;;;0.80;99.80;;;;;;5091935;28;20210;-43
2021/01/11 11:30:55;;;;;;;29.13;17.40;;;0.80;99.70;;;;;;5091849;28;20210;-51
2021/01/11 11:33:23;;;;;;;29.73;19.40;;;0.70;99.70;;;;;;5091825;28;20206;-48
2021/01/11 11:35:51;;;;;;;29.47;19.37;;;0.60;99.90;;;;;;5091779;28;20695;-50
2021/01/11 11:38:19;;;;;;;31.30;19.60;;;0.40;99.90;;;;;;5092190;28;20203;-46
2021/01/11 11:40:46;;;;;;;35.80;21.23;;;0.20;99.90;;;;;;5092022;28;20218;-47
2021/01/11 11:43:13;;;;;;;33.00;21.40;;;0.20;99.90;;;;;;5092122;28;20232;-47
2021/01/11 11:45:42;;;;;;;32.30;18.98;;;0.20;99.90;;;;;;5092196;28;20274;-45
2021/01/11 11:48:10;;;;;;;34.73;21.20;;;0.20;99.90;;;;;;5092072;28;20211;-47
2021/01/11 11:50:37;;;;;;;36.43;19.33;;;0.30;99.90;;;;;;5091893;28;20731;-46
2021/01/11 11:53:04;;;;;;;31.93;20.00;;;0.30;99.90;;;;;;5091777;28;20326;-44
2021/01/11 11:55:33;;;;;;;32.50;18.60;;;0.10;99.90;;;;;;5091616;28;20299;-45
2021/01/11 11:58:00;;;;;;;37.00;20.70;;;-0.10;99.90;;;;;;5091964;28;20223;-45
2021/01/11 12:00:27;;;;;;;82.07;44.53;;;-0.20;99.90;;;;;;5091803;28;20557;-41
2021/01/11 12:03:13;;;;;;;32.92;21.23;;;-0.30;99.90;;;;;;5091731;28;20268;-42
2021/01/11 12:05:40;;;;;;;33.43;21.10;;;-0.40;99.90;;;;;;5091643;28;20210;-40
2021/01/11 12:08:08;;;;;;;33.93;20.33;;;-0.40;99.90;;;;;;5092434;28;20314;-42
2021/01/11 12:10:35;;;;;;;33.30;19.40;;;-0.30;99.90;;;;;;5095655;28;20350;-41
2021/01/11 12:13:03;;;;;;;30.50;18.70;;;0.00;99.90;;;;;;5095472;28;20642;-42
2021/01/11 12:15:30;;;;;;;35.70;20.67;;;0.20;99.90;;;;;;5095477;28;20241;-41
2021/01/11 12:17:57;;;;;;;32.10;19.77;;;0.20;99.90;;;;;;5095509;28;20246;-42
2021/01/11 12:20:24;;;;;;;35.93;21.10;;;0.00;99.90;;;;;;5095515;28;20256;-42
2021/01/11 12:22:52;;;;;;;40.20;23.87;;;-0.20;99.90;;;;;;5095637;28;20286;-42
2021/01/11 12:25:19;;;;;;;34.43;20.37;;;-0.40;99.90;;;;;;5095580;28;20293;-42
2021/01/11 12:27:47;;;;;;;29.63;19.47;;;-0.30;99.90;;;;;;5095509;28;20203;-42
2021/01/11 12:30:15;;;;;;;36.77;20.67;;;-0.20;99.90;;;;;;5095433;28;20294;-42
2021/01/11 12:32:46;;;;;;;35.87;21.30;;;0.10;99.90;;;;;;5095095;28;20269;-42
2021/01/11 12:35:15;;;;;;;34.90;21.07;;;0.20;99.90;;;;;;5095050;28;20210;-44
2021/01/11 12:37:42;;;;;;;35.95;22.85;;;0.30;99.90;;;;;;5095067;28;20206;-42
2021/01/11 12:40:10;;;;;;;33.40;19.73;;;0.40;99.70;;;;;;5095357;28;20210;-42